Time;durP1;ratioP1;P1;durP2;ratioP2;P2;SDS_P1;SDS_P2;PMS_P1;PMS_P2;Temp;Humidity;BMP_temperature;BMP_pressure;BME280_temperature;BME280_humidity;BME280_pressure;Samples;Min_cycle;Max_cycle;Signal;HPM_P1;HPM_P2
2021/11/17 02:28:01;;;;;;;25.25;10.10;;;4.70;99.90;;;;;;4979940;28;20539;-69
2021/11/17 02:30:43;;;;;;;18.67;7.75;;;4.70;99.90;;;;;;4980339;28;20034;-69
2021/11/17 02:33:36;;;;;;;22.42;9.98;;;4.70;99.90;;;;;;4980961;28;20326;-69
2021/11/17 02:36:17;;;;;;;32.42;10.35;;;4.70;99.90;;;;;;4980527;28;20033;-69
2021/11/17 02:39:13;;;;;;;21.02;9.13;;;4.70;99.90;;;;;;4981065;28;20051;-69
2021/11/17 02:42:04;;;;;;;20.15;7.32;;;4.70;99.90;;;;;;4965199;28;20367;-69
2021/11/17 02:44:41;;;;;;;24.45;10.40;;;4.60;99.90;;;;;;4980492;28;20050;-69
2021/11/17 02:47:28;;;;;;;20.90;8.85;;;4.60;99.90;;;;;;4980152;28;20027;-70
2021/11/17 02:50:12;;;;;;;;;;;4.60;99.90;;;;;;4981128;28;20035;-69
2021/11/17 02:53:07;;;;;;;23.92;9.70;;;4.60;99.90;;;;;;4980027;28;19914;-69
2021/11/17 02:55:47;;;;;;;21.55;9.23;;;4.60;99.90;;;;;;4979957;28;20046;-69
2021/11/17 02:58:35;;;;;;;20.90;8.48;;;4.50;99.90;;;;;;4980061;28;20082;-69
2021/11/17 03:01:20;;;;;;;21.92;9.63;;;4.50;99.90;;;;;;4979894;28;20033;-69
2021/11/17 03:03:55;;;;;;;25.88;9.52;;;4.50;99.90;;;;;;4979608;28;20029;-69
2021/11/17 03:06:54;;;;;;;25.65;10.30;;;4.50;99.90;;;;;;4979154;28;20031;-69
2021/11/17 03:10:00;;;;;;;25.80;10.32;;;4.50;99.90;;;;;;4979673;28;20415;-69
2021/11/17 03:12:39;;;;;;;23.75;9.88;;;4.40;99.90;;;;;;4968210;28;20077;-69
2021/11/17 03:15:33;;;;;;;28.48;10.57;;;4.50;99.90;;;;;;4980538;28;20027;-69
2021/11/17 03:18:28;;;;;;;25.00;9.13;;;4.40;99.90;;;;;;4965995;28;20423;-69
2021/11/17 03:21:08;;;;;;;31.92;10.88;;;4.40;99.90;;;;;;4979623;28;20031;-69
2021/11/17 03:23:53;;;;;;;27.00;10.50;;;4.40;99.90;;;;;;4980372;28;20051;-69
2021/11/17 03:26:38;;;;;;;31.77;11.52;;;4.40;99.90;;;;;;4980279;28;20543;-69
2021/11/17 03:29:31;;;;;;;26.27;9.30;;;4.40;99.90;;;;;;4980383;28;20101;-69
2021/11/17 03:32:02;;;;;;;22.83;9.65;;;4.40;99.90;;;;;;4979858;28;20053;-69
2021/11/17 03:35:01;;;;;;;24.58;10.35;;;4.40;99.90;;;;;;4979667;28;20019;-69
2021/11/17 03:37:36;;;;;;;30.13;11.07;;;4.40;99.90;;;;;;4979182;28;20034;-69
2021/11/17 03:40:21;;;;;;;24.98;9.93;;;4.40;99.90;;;;;;4979271;28;20034;-69
2021/11/17 03:43:12;;;;;;;26.30;9.70;;;4.40;99.90;;;;;;4961349;28;20453;-69
2021/11/17 03:46:06;;;;;;;25.55;9.55;;;4.40;99.90;;;;;;4978803;28;20023;-69
2021/11/17 03:49:13;;;;;;;28.50;10.93;;;4.40;99.90;;;;;;4975032;28;20093;-69
2021/11/17 03:51:50;;;;;;;23.65;10.20;;;4.40;99.90;;;;;;4978205;28;20115;-69
2021/11/17 03:54:24;;;;;;;25.45;9.35;;;4.40;99.90;;;;;;4978539;28;20055;-69
2021/11/17 03:57:31;;;;;;;25.20;9.98;;;4.40;99.90;;;;;;4979156;28;20023;-69
2021/11/17 04:00:08;;;;;;;28.38;10.98;;;4.30;99.90;;;;;;4969097;28;20105;-69
2021/11/17 04:02:46;;;;;;;24.73;10.82;;;4.30;99.90;;;;;;4979108;28;20046;-69
2021/11/17 04:05:29;;;;;;;26.88;11.73;;;4.30;99.90;;;;;;4979581;28;20031;-68
2021/11/17 04:08:20;;;;;;;22.70;11.10;;;4.30;99.90;;;;;;4979723;28;20030;-69
2021/11/17 04:11:17;;;;;;;28.42;12.40;;;4.30;99.90;;;;;;4979137;28;20022;-69
2021/11/17 04:13:58;;;;;;;30.52;13.57;;;4.30;99.90;;;;;;4978887;28;20042;-69
2021/11/17 04:16:32;;;;;;;25.67;11.32;;;4.30;99.90;;;;;;4979418;28;20045;-69
2021/11/17 04:19:36;;;;;;;33.63;14.60;;;4.30;99.90;;;;;;4978296;28;20023;-69
2021/11/17 04:22:23;;;;;;;34.65;13.75;;;4.30;99.90;;;;;;4977871;28;20029;-69
2021/11/17 04:25:08;;;;;;;37.03;14.13;;;4.30;99.90;;;;;;4960702;28;20497;-69
2021/11/17 04:27:51;;;;;;;37.97;15.35;;;4.30;99.90;;;;;;4977814;28;20106;-69
2021/11/17 04:30:46;;;;;;;45.20;18.08;;;4.30;99.90;;;;;;4978378;28;20034;-69
2021/11/17 04:33:23;;;;;;;32.58;14.57;;;4.30;99.90;;;;;;4977992;28;20022;-69
2021/11/17 04:36:31;;;;;;;36.53;16.70;;;4.20;99.90;;;;;;4978691;28;20026;-69
2021/11/17 04:39:28;;;;;;;37.00;16.42;;;4.20;99.90;;;;;;4978148;28;20027;-69
2021/11/17 04:42:15;;;;;;;43.60;17.08;;;4.20;99.90;;;;;;4978814;28;20030;-69
2021/11/17 04:44:58;;;;;;;40.53;16.60;;;4.20;99.90;;;;;;4978440;28;20352;-69
2021/11/17 04:47:45;;;;;;;39.28;18.13;;;4.20;99.90;;;;;;4978176;28;20031;-69
2021/11/17 04:50:29;;;;;;;;;;;4.20;99.90;;;;;;4979343;28;20117;-69
2021/11/17 04:53:23;;;;;;;42.45;17.92;;;4.20;99.90;;;;;;4979066;28;20000;-69
2021/11/17 04:56:07;;;;;;;45.95;16.65;;;4.20;99.90;;;;;;4978497;28;20367;-69
2021/11/17 04:58:46;;;;;;;43.22;17.38;;;4.20;99.90;;;;;;4979094;28;20023;-69
2021/11/17 05:01:23;;;;;;;36.28;16.67;;;4.20;99.90;;;;;;4977787;28;20101;-69
2021/11/17 05:04:26;;;;;;;42.67;17.00;;;4.20;99.90;;;;;;4980263;28;20023;-69
2021/11/17 05:07:25;;;;;;;36.63;16.30;;;4.20;99.90;;;;;;4938743;28;20035;-69
2021/11/17 05:10:23;;;;;;;38.22;16.52;;;4.20;99.90;;;;;;4981796;28;20070;-69
2021/11/17 05:13:03;;;;;;;40.72;17.50;;;4.20;99.90;;;;;;4981510;28;20323;-69
2021/11/17 05:16:13;;;;;;;46.70;18.83;;;4.20;99.90;;;;;;4981227;28;20019;-69
2021/11/17 05:19:02;;;;;;;47.17;18.38;;;4.20;99.90;;;;;;4903185;29;20084;-69
2021/11/17 05:21:58;;;;;;;43.47;16.42;;;4.20;99.90;;;;;;4981011;28;20423;-69
2021/11/17 05:24:51;;;;;;;34.67;16.27;;;4.20;99.90;;;;;;4965026;28;20411;-69
2021/11/17 05:27:22;;;;;;;37.53;17.08;;;4.20;99.90;;;;;;4982508;28;20031;-69
2021/11/17 05:30:06;;;;;;;39.47;15.63;;;4.10;99.90;;;;;;4964915;28;20423;-69
2021/11/17 05:32:53;;;;;;;34.00;13.63;;;4.10;99.90;;;;;;4982573;28;20075;-69
2021/11/17 05:35:34;;;;;;;40.80;15.27;;;4.10;99.90;;;;;;4981719;28;20038;-69
2021/11/17 05:38:34;;;;;;;39.78;14.60;;;4.10;99.90;;;;;;4964803;28;20039;-69
2021/11/17 05:41:33;;;;;;;33.92;13.80;;;4.10;99.90;;;;;;4981992;28;20027;-69
2021/11/17 05:44:10;;;;;;;27.42;12.13;;;4.10;99.90;;;;;;4981186;28;20090;-69
2021/11/17 05:47:05;;;;;;;26.23;11.23;;;4.10;99.90;;;;;;4980759;28;20035;-69
2021/11/17 05:49:46;;;;;;;33.67;12.07;;;4.10;99.90;;;;;;4980573;28;20129;-69
2021/11/17 05:52:41;;;;;;;28.08;12.70;;;4.10;99.90;;;;;;4980603;28;20553;-69
2021/11/17 05:55:21;;;;;;;28.15;11.73;;;4.10;99.90;;;;;;4980545;28;20031;-69
2021/11/17 05:58:29;;;;;;;33.78;12.90;;;4.10;99.90;;;;;;4981051;28;20077;-69
2021/11/17 06:01:29;;;;;;;27.05;11.48;;;4.10;99.90;;;;;;4980617;28;20051;-69
2021/11/17 06:04:04;;;;;;;26.48;10.35;;;4.10;99.90;;;;;;4963832;28;20037;-69
2021/11/17 06:06:38;;;;;;;28.27;9.95;;;4.10;99.90;;;;;;4980487;28;20034;-69
2021/11/17 06:09:08;;;;;;;23.30;10.02;;;4.10;99.90;;;;;;4981296;28;20097;-69
2021/11/17 06:12:08;;;;;;;20.58;7.95;;;4.10;99.90;;;;;;4981339;28;20079;-68
2021/11/17 06:14:41;;;;;;;25.88;9.15;;;4.10;99.90;;;;;;4937847;28;20090;-69
2021/11/17 06:17:29;;;;;;;24.85;9.68;;;4.10;99.90;;;;;;4980949;28;20046;-69
2021/11/17 06:19:58;;;;;;;22.67;9.05;;;4.10;99.90;;;;;;4981673;28;20023;-68
2021/11/17 06:22:32;;;;;;;22.58;8.75;;;4.00;99.90;;;;;;4963750;28;20337;-69
2021/11/17 06:25:08;;;;;;;22.80;9.13;;;4.10;99.90;;;;;;4963766;28;20031;-69
2021/11/17 06:27:41;;;;;;;26.65;9.73;;;4.10;99.90;;;;;;4980253;28;20026;-69
2021/11/17 06:30:12;;;;;;;23.80;8.48;;;4.10;99.90;;;;;;4980454;28;20438;-69
2021/11/17 06:32:40;;;;;;;18.88;8.05;;;4.10;99.90;;;;;;4979783;28;20027;-69
2021/11/17 06:35:10;;;;;;;19.67;8.07;;;4.00;99.90;;;;;;4979901;28;20050;-69
2021/11/17 06:37:37;;;;;;;22.90;7.90;;;4.00;99.90;;;;;;4979699;28;20309;-68
2021/11/17 06:40:13;;;;;;;22.38;8.75;;;4.00;99.90;;;;;;4980041;28;20018;-69
2021/11/17 06:42:45;;;;;;;22.35;7.97;;;4.10;99.90;;;;;;4979704;28;20416;-69
2021/11/17 06:45:21;;;;;;;19.10;7.63;;;4.00;99.90;;;;;;4980378;28;20031;-69
2021/11/17 06:47:48;;;;;;;17.17;6.85;;;4.00;99.90;;;;;;4979854;28;20066;-69
2021/11/17 06:50:19;;;;;;;21.27;7.22;;;4.10;99.90;;;;;;4980013;28;20396;-68
2021/11/17 06:52:47;;;;;;;18.70;7.38;;;4.10;99.90;;;;;;4980273;28;20039;-69
2021/11/17 06:55:22;;;;;;;23.60;7.82;;;4.10;99.90;;;;;;4980523;28;20034;-69
2021/11/17 06:57:50;;;;;;;21.20;8.32;;;4.10;99.90;;;;;;4980394;28;20422;-69
2021/11/17 07:00:22;;;;;;;24.25;8.57;;;4.10;99.90;;;;;;4980541;28;20037;-68
2021/11/17 07:02:51;;;;;;;18.48;7.28;;;4.10;99.90;;;;;;4980396;28;20027;-68
2021/11/17 07:05:20;;;;;;;18.27;7.53;;;4.10;99.90;;;;;;4980471;28;20094;-69
2021/11/17 07:07:48;;;;;;;16.55;7.13;;;4.10;99.90;;;;;;4980432;28;20023;-69
2021/11/17 07:10:17;;;;;;;21.73;7.53;;;4.20;99.90;;;;;;4962633;28;20102;-69
2021/11/17 07:12:45;;;;;;;20.23;7.50;;;4.20;99.90;;;;;;4979062;28;20050;-69
2021/11/17 07:15:14;;;;;;;19.02;7.45;;;4.20;99.90;;;;;;4979816;28;20023;-69
2021/11/17 07:17:42;;;;;;;21.55;7.43;;;4.20;99.90;;;;;;4979062;28;20019;-69
2021/11/17 07:20:12;;;;;;;18.58;7.70;;;4.30;99.90;;;;;;4978996;28;20046;-70
2021/11/17 07:22:40;;;;;;;16.95;6.68;;;4.30;99.90;;;;;;4961820;28;20030;-70
2021/11/17 07:25:10;;;;;;;19.38;8.60;;;4.30;99.90;;;;;;4979098;28;20129;-70
2021/11/17 07:27:38;;;;;;;18.35;7.03;;;4.30;99.90;;;;;;4978471;28;20027;-69
2021/11/17 07:30:12;;;;;;;22.73;8.73;;;4.30;99.90;;;;;;4979067;28;20415;-69
2021/11/17 07:32:39;;;;;;;15.85;8.00;;;4.40;99.90;;;;;;4978731;28;20327;-69
2021/11/17 07:35:09;;;;;;;18.15;8.40;;;4.40;99.90;;;;;;4979918;28;20023;-69
2021/11/17 07:37:39;;;;;;;16.95;7.85;;;4.40;99.90;;;;;;4979866;28;20022;-69
2021/11/17 07:40:09;;;;;;;15.38;6.88;;;4.40;99.90;;;;;;4979458;28;20308;-70
2021/11/17 07:42:37;;;;;;;18.77;8.48;;;4.50;99.90;;;;;;4979452;28;20030;-69
2021/11/17 07:45:08;;;;;;;22.33;10.30;;;4.50;99.90;;;;;;4979443;28;20037;-71
2021/11/17 07:47:48;;;;;;;16.17;7.57;;;4.50;99.90;;;;;;5136483;27;20408;-69
2021/11/17 07:50:18;;;;;;;17.67;7.63;;;4.50;99.90;;;;;;5107082;28;20024;-70
2021/11/17 07:52:45;;;;;;;15.98;7.85;;;4.50;99.90;;;;;;5095129;28;20044;-71
2021/11/17 07:55:15;;;;;;;19.58;8.55;;;4.50;99.90;;;;;;5094157;28;20024;-70
2021/11/17 07:57:45;;;;;;;17.75;7.40;;;4.50;99.90;;;;;;5094232;28;20103;-70
2021/11/17 08:00:22;;;;;;;21.52;7.53;;;4.50;99.90;;;;;;5093908;28;20038;-71
2021/11/17 08:02:51;;;;;;;20.27;8.68;;;4.60;99.90;;;;;;5092141;28;20024;-71
2021/11/17 08:05:23;;;;;;;15.25;7.30;;;4.60;99.90;;;;;;5094174;28;20024;-70
2021/11/17 08:07:54;;;;;;;17.80;7.68;;;4.60;99.90;;;;;;5075717;28;20115;-70
2021/11/17 08:10:26;;;;;;;16.02;8.07;;;4.70;99.90;;;;;;5094246;28;20016;-70
2021/11/17 08:12:57;;;;;;;20.40;8.48;;;4.70;99.90;;;;;;5094309;28;20077;-70
2021/11/17 08:15:25;;;;;;;16.67;7.55;;;4.70;99.90;;;;;;5093577;28;20024;-70
2021/11/17 08:17:53;;;;;;;24.77;9.23;;;4.80;99.90;;;;;;5095004;28;20028;-70
2021/11/17 08:20:21;;;;;;;18.77;8.77;;;4.80;99.90;;;;;;5076349;28;20016;-70
2021/11/17 08:22:53;;;;;;;19.73;9.88;;;4.80;99.90;;;;;;5076403;28;20021;-70
2021/11/17 08:25:24;;;;;;;18.55;8.13;;;4.90;99.90;;;;;;5076274;28;20040;-70
2021/11/17 08:27:52;;;;;;;22.45;9.88;;;4.90;99.90;;;;;;5094269;28;20016;-70
2021/11/17 08:30:23;;;;;;;21.88;9.50;;;4.90;99.90;;;;;;5094226;28;20017;-69
2021/11/17 08:32:51;;;;;;;22.38;8.90;;;4.90;99.90;;;;;;5094498;28;20017;-70
2021/11/17 08:35:24;;;;;;;21.40;10.82;;;5.00;99.90;;;;;;5076176;28;20027;-70
2021/11/17 08:37:53;;;;;;;21.40;9.82;;;5.00;99.90;;;;;;5093888;28;20397;-71
2021/11/17 08:40:28;;;;;;;18.92;9.68;;;5.00;99.90;;;;;;5093036;28;20097;-71
2021/11/17 08:42:56;;;;;;;26.55;9.88;;;5.10;99.90;;;;;;5093247;28;20424;-72
2021/11/17 08:45:24;;;;;;;24.55;10.43;;;5.20;99.90;;;;;;5074061;28;20025;-72
2021/11/17 08:47:53;;;;;;;21.67;8.88;;;5.20;99.90;;;;;;5073165;28;20060;-71
2021/11/17 08:50:25;;;;;;;20.02;9.48;;;5.30;99.90;;;;;;5072528;28;20017;-71
2021/11/17 08:52:54;;;;;;;15.82;7.97;;;5.40;99.90;;;;;;5072845;28;20021;-71
2021/11/17 08:55:25;;;;;;;21.42;9.18;;;5.50;99.90;;;;;;5072398;28;20031;-72
2021/11/17 08:58:04;;;;;;;17.85;9.63;;;5.50;99.90;;;;;;5066389;28;20032;-71
2021/11/17 09:00:33;;;;;;;18.60;8.80;;;5.50;99.90;;;;;;5059880;28;20013;-71
2021/11/17 09:03:05;;;;;;;18.58;9.23;;;5.60;99.90;;;;;;5060226;28;20044;-77
2021/11/17 09:05:40;;;;;;;18.42;9.52;;;5.60;99.90;;;;;;5060332;28;20021;-71
2021/11/17 09:08:08;;;;;;;22.55;10.18;;;5.60;99.90;;;;;;5042371;28;20041;-71
2021/11/17 09:10:43;;;;;;;15.27;8.65;;;5.60;99.90;;;;;;5059943;28;20028;-70
2021/11/17 09:13:11;;;;;;;19.83;8.27;;;5.60;99.90;;;;;;5060404;28;20356;-71
2021/11/17 09:15:42;;;;;;;19.08;9.10;;;5.70;99.90;;;;;;5060401;28;20018;-71
2021/11/17 09:18:12;;;;;;;23.38;10.57;;;5.70;99.90;;;;;;5060375;28;20021;-71
2021/11/17 09:20:39;;;;;;;20.75;9.30;;;5.70;99.90;;;;;;5059114;28;20025;-71
2021/11/17 09:23:10;;;;;;;22.40;9.85;;;5.70;99.90;;;;;;5058882;28;20075;-71
2021/11/17 09:25:38;;;;;;;21.23;9.75;;;5.70;99.90;;;;;;5058751;28;20021;-71
2021/11/17 09:28:07;;;;;;;18.75;9.10;;;5.70;99.90;;;;;;5058628;28;20033;-71
2021/11/17 09:30:39;;;;;;;19.17;9.40;;;5.70;99.90;;;;;;5058676;28;20013;-71
2021/11/17 09:33:11;;;;;;;19.02;9.30;;;5.70;99.90;;;;;;5058937;28;20309;-70
2021/11/17 09:35:39;;;;;;;20.17;9.07;;;5.70;99.90;;;;;;5040746;28;20029;-71
2021/11/17 09:38:08;;;;;;;19.73;8.98;;;5.70;99.90;;;;;;5058470;28;20025;-71
2021/11/17 09:40:45;;;;;;;22.52;8.68;;;5.70;99.90;;;;;;5058354;28;20052;-71
2021/11/17 09:43:17;;;;;;;13.50;7.78;;;5.70;99.90;;;;;;5059509;28;20106;-71
2021/11/17 09:45:47;;;;;;;20.88;8.65;;;5.70;99.90;;;;;;5059796;28;20040;-71
2021/11/17 09:48:22;;;;;;;17.67;8.02;;;5.80;99.90;;;;;;5041591;28;20021;-71
2021/11/17 09:51:02;;;;;;;20.92;9.00;;;5.80;99.90;;;;;;5059153;28;20317;-70
2021/11/17 09:53:44;;;;;;;15.80;7.85;;;5.90;99.90;;;;;;5058162;28;20017;-71
2021/11/17 09:56:25;;;;;;;15.00;7.25;;;6.10;99.90;;;;;;5059024;28;20025;-71
2021/11/17 09:59:07;;;;;;;15.63;7.13;;;6.30;99.90;;;;;;5058903;28;20025;-71
2021/11/17 10:01:42;;;;;;;15.90;7.57;;;6.40;99.90;;;;;;5060035;28;20354;-71
2021/11/17 10:04:25;;;;;;;15.50;6.88;;;6.50;99.90;;;;;;5058679;28;20317;-71
2021/11/17 10:07:28;;;;;;;17.83;7.85;;;6.50;99.90;;;;;;5057895;28;20146;-71
2021/11/17 10:10:54;;;;;;;16.27;7.57;;;6.50;99.90;;;;;;5056757;28;20025;-71
2021/11/17 10:13:25;;;;;;;16.17;8.90;;;6.50;99.90;;;;;;5057380;28;20029;-71
2021/11/17 10:15:55;;;;;;;16.90;7.50;;;6.50;99.90;;;;;;5058069;28;20099;-71
2021/11/17 10:18:43;;;;;;;15.38;7.25;;;6.60;99.90;;;;;;5057730;28;20031;-72
2021/11/17 10:21:32;;;;;;;16.65;6.72;;;6.50;99.90;;;;;;5057863;28;20024;-70
2021/11/17 10:24:14;;;;;;;15.85;7.07;;;6.60;99.90;;;;;;5057979;28;20490;-70
2021/11/17 10:26:52;;;;;;;14.85;7.43;;;6.60;99.90;;;;;;5058945;28;20032;-70
2021/11/17 10:29:44;;;;;;;14.88;7.45;;;6.70;99.90;;;;;;5058368;28;20014;-71
2021/11/17 10:32:15;;;;;;;17.73;7.88;;;6.70;99.90;;;;;;5058372;28;20021;-70
2021/11/17 10:34:58;;;;;;;25.70;10.45;;;6.70;99.90;;;;;;5040706;28;20048;-70
2021/11/17 10:37:35;;;;;;;19.02;8.50;;;6.70;99.90;;;;;;5058252;28;20035;-70
2021/11/17 10:40:21;;;;;;;20.65;9.20;;;6.60;99.90;;;;;;5058259;28;20078;-70
2021/11/17 10:43:05;;;;;;;17.27;7.47;;;6.60;99.90;;;;;;5058213;28;20096;-72
2021/11/17 10:45:42;;;;;;;17.17;7.78;;;6.60;99.90;;;;;;5057060;28;20021;-71
2021/11/17 10:48:27;;;;;;;18.23;7.47;;;6.50;99.90;;;;;;5056995;28;20298;-71
2021/11/17 10:51:13;;;;;;;15.57;8.05;;;6.50;99.90;;;;;;5057309;28;20108;-70
2021/11/17 10:53:41;;;;;;;16.95;8.02;;;6.60;99.90;;;;;;5057107;28;20071;-71
2021/11/17 10:56:17;;;;;;;15.13;7.15;;;6.50;99.90;;;;;;5057543;28;20032;-71
2021/11/17 10:58:48;;;;;;;17.75;8.40;;;6.50;99.90;;;;;;5056787;28;20420;-70
2021/11/17 11:01:24;;;;;;;18.92;7.65;;;6.40;99.90;;;;;;5056856;28;20428;-71
2021/11/17 11:04:00;;;;;;;14.55;7.25;;;6.40;99.90;;;;;;5039982;28;20025;-71
2021/11/17 11:06:40;;;;;;;16.52;7.60;;;6.40;99.90;;;;;;5057620;28;20025;-71
2021/11/17 11:09:30;;;;;;;17.63;8.30;;;6.30;99.90;;;;;;5058188;28;20417;-71
2021/11/17 11:12:01;;;;;;;18.17;8.25;;;6.30;99.90;;;;;;5057686;28;20026;-71
2021/11/17 11:14:38;;;;;;;14.57;7.13;;;6.30;99.90;;;;;;5057646;28;20017;-71
2021/11/17 11:17:28;;;;;;;16.27;7.35;;;6.30;99.90;;;;;;5057530;28;20363;-72
2021/11/17 11:20:16;;;;;;;25.30;11.75;;;6.20;99.90;;;;;;5058050;28;20053;-69
2021/11/17 11:23:05;;;;;;;19.25;7.57;;;6.30;99.90;;;;;;5056853;28;20048;-70
2021/11/17 11:25:53;;;;;;;22.98;9.07;;;6.40;99.90;;;;;;5056971;28;20452;-70
2021/11/17 11:28:21;;;;;;;16.52;7.57;;;6.40;99.90;;;;;;5057055;28;20044;-70
2021/11/17 11:31:06;;;;;;;19.83;8.50;;;6.50;99.90;;;;;;5057038;28;20021;-70
2021/11/17 11:33:53;;;;;;;17.52;8.98;;;6.60;99.90;;;;;;5057209;28;20048;-70
2021/11/17 11:36:24;;;;;;;16.92;7.65;;;6.60;99.90;;;;;;5038572;28;20389;-69
2021/11/17 11:38:59;;;;;;;21.27;7.32;;;6.60;99.90;;;;;;5057024;28;20017;-70
2021/11/17 11:41:30;;;;;;;15.43;6.50;;;6.60;99.90;;;;;;5056929;28;20028;-69
2021/11/17 11:44:19;;;;;;;16.80;8.07;;;6.60;99.90;;;;;;5057713;28;20040;-70
2021/11/17 11:47:22;;;;;;;20.48;6.90;;;6.60;99.90;;;;;;5057276;28;20452;-69
2021/11/17 11:49:55;;;;;;;21.23;10.30;;;6.50;99.90;;;;;;5050094;28;20099;-70
2021/11/17 11:52:35;;;;;;;16.13;6.93;;;6.60;99.90;;;;;;5057116;28;20475;-70
2021/11/17 11:55:05;;;;;;;18.00;8.27;;;6.60;99.90;;;;;;5057298;28;20028;-69
2021/11/17 11:57:50;;;;;;;17.08;7.63;;;6.70;99.90;;;;;;5057905;28;20048;-69
2021/11/17 12:00:34;;;;;;;18.10;7.55;;;6.70;99.90;;;;;;5057091;28;20021;-69
2021/11/17 12:03:14;;;;;;;18.38;8.65;;;6.70;99.90;;;;;;5056868;28;20421;-70
2021/11/17 12:05:42;;;;;;;16.75;8.13;;;6.80;99.90;;;;;;5038228;28;20032;-69
2021/11/17 12:08:17;;;;;;;17.63;8.35;;;6.80;99.90;;;;;;5056602;28;20025;-69
2021/11/17 12:10:55;;;;;;;20.42;9.20;;;6.80;99.90;;;;;;5038355;28;20074;-69
2021/11/17 12:13:26;;;;;;;18.92;8.75;;;6.80;99.90;;;;;;5056015;28;20025;-70
2021/11/17 12:16:08;;;;;;;20.83;8.60;;;6.80;99.90;;;;;;5038330;28;20021;-70
2021/11/17 12:19:11;;;;;;;19.67;8.60;;;6.80;99.90;;;;;;5056007;28;20025;-69
2021/11/17 12:21:42;;;;;;;18.08;8.90;;;6.90;99.90;;;;;;5035248;28;20033;-70
2021/11/17 12:24:13;;;;;;;17.23;8.90;;;6.90;99.90;;;;;;5057428;28;20017;-69
2021/11/17 12:26:45;;;;;;;18.60;9.00;;;6.90;99.90;;;;;;5057303;28;20017;-69
2021/11/17 12:29:17;;;;;;;18.90;8.43;;;7.00;99.90;;;;;;5057017;28;20021;-70
2021/11/17 12:31:59;;;;;;;20.27;8.90;;;7.00;99.90;;;;;;5056845;28;20033;-69
2021/11/17 12:34:33;;;;;;;21.42;9.85;;;7.00;99.90;;;;;;5060834;28;20017;-69
2021/11/17 12:37:32;;;;;;;21.80;9.23;;;7.00;99.90;;;;;;5060746;28;20031;-69
2021/11/17 12:40:17;;;;;;;21.58;10.02;;;7.00;99.90;;;;;;5060326;28;20305;-70
2021/11/17 12:42:57;;;;;;;21.40;9.23;;;7.10;99.90;;;;;;5059886;28;20337;-69
2021/11/17 12:45:46;;;;;;;18.90;8.52;;;7.10;99.90;;;;;;5059909;28;20103;-70
2021/11/17 12:48:42;;;;;;;24.65;9.40;;;7.10;99.90;;;;;;5041885;28;20021;-69
2021/11/17 12:51:19;;;;;;;26.40;10.95;;;7.10;99.90;;;;;;5059401;28;20050;-69
2021/11/17 12:54:00;;;;;;;25.60;10.80;;;7.10;99.90;;;;;;5059316;28;20021;-69
2021/11/17 12:56:44;;;;;;;22.08;9.90;;;7.00;99.90;;;;;;5059833;28;20071;-70
2021/11/17 12:59:20;;;;;;;23.75;10.70;;;7.00;99.90;;;;;;5060295;28;20049;-69
2021/11/17 13:02:04;;;;;;;27.25;11.02;;;7.00;99.90;;;;;;5060811;28;20021;-69
2021/11/17 13:04:38;;;;;;;22.83;10.45;;;6.90;99.90;;;;;;5060532;28;20298;-69
2021/11/17 13:07:11;;;;;;;30.33;12.13;;;6.90;99.90;;;;;;5060506;28;20029;-69
2021/11/17 13:09:42;;;;;;;25.40;11.23;;;6.90;99.90;;;;;;5042546;28;20055;-69
2021/11/17 13:12:10;;;;;;;35.05;14.07;;;6.90;99.90;;;;;;5060481;28;20360;-69
2021/11/17 13:14:47;;;;;;;23.95;10.82;;;6.80;99.90;;;;;;5060485;28;20021;-69
2021/11/17 13:17:44;;;;;;;25.45;11.82;;;6.80;99.90;;;;;;5059489;28;20032;-70
2021/11/17 13:20:16;;;;;;;34.33;13.18;;;6.80;99.90;;;;;;5059250;28;20017;-69
2021/11/17 13:22:54;;;;;;;28.80;12.68;;;6.90;99.90;;;;;;5059321;28;20044;-69
2021/11/17 13:25:33;;;;;;;27.20;11.02;;;6.80;99.90;;;;;;5041064;28;20416;-69
2021/11/17 13:28:05;;;;;;;27.75;11.45;;;6.90;99.90;;;;;;5059309;28;20111;-70
2021/11/17 13:30:43;;;;;;;27.45;11.00;;;6.90;99.90;;;;;;5058722;28;20418;-70
2021/11/17 13:33:26;;;;;;;33.33;12.05;;;7.00;99.90;;;;;;5040882;28;20079;-70
2021/11/17 13:36:13;;;;;;;29.80;11.40;;;7.00;99.90;;;;;;5059603;28;20056;-69
2021/11/17 13:38:55;;;;;;;32.67;11.15;;;7.00;99.90;;;;;;5059520;28;20021;-69
2021/11/17 13:41:23;;;;;;;33.92;14.63;;;7.00;99.90;;;;;;5059641;28;20029;-69
2021/11/17 13:43:52;;;;;;;23.38;10.38;;;7.00;99.90;;;;;;5059642;28;20331;-70
2021/11/17 13:46:20;;;;;;;28.73;10.40;;;7.10;99.90;;;;;;5059511;28;20041;-70
2021/11/17 13:48:49;;;;;;;25.08;10.43;;;7.10;99.90;;;;;;5059216;28;20139;-70
2021/11/17 13:51:23;;;;;;;23.90;10.20;;;7.10;99.90;;;;;;5058998;28;20021;-69
2021/11/17 13:53:51;;;;;;;23.85;9.98;;;7.10;99.90;;;;;;5058342;28;20417;-70
2021/11/17 13:56:25;;;;;;;20.35;8.55;;;7.20;99.90;;;;;;5058056;28;20032;-70
2021/11/17 13:58:55;;;;;;;24.92;8.93;;;7.20;99.90;;;;;;5057976;28;20025;-70
2021/11/17 14:01:24;;;;;;;23.27;9.60;;;7.30;99.90;;;;;;5058076;28;20029;-69
2021/11/17 14:03:52;;;;;;;18.08;7.47;;;7.40;99.90;;;;;;5058069;28;20025;-69
2021/11/17 14:06:21;;;;;;;20.50;8.98;;;7.40;99.90;;;;;;5057865;28;20028;-69
2021/11/17 14:08:50;;;;;;;19.50;8.73;;;7.40;99.90;;;;;;5057897;28;20421;-69
2021/11/17 14:11:18;;;;;;;19.45;8.05;;;7.50;99.90;;;;;;5058357;28;20155;-69
2021/11/17 14:13:47;;;;;;;20.70;8.57;;;7.50;99.90;;;;;;5058699;28;20070;-69
2021/11/17 14:16:17;;;;;;;22.67;9.10;;;7.50;99.90;;;;;;5058664;28;20123;-69
2021/11/17 14:18:45;;;;;;;19.35;7.80;;;7.50;99.90;;;;;;5058953;28;20025;-69
2021/11/17 14:21:14;;;;;;;20.67;8.90;;;7.50;99.90;;;;;;5058490;28;20029;-69
2021/11/17 14:23:43;;;;;;;18.13;8.15;;;7.50;99.90;;;;;;5058729;28;20048;-69
2021/11/17 14:26:15;;;;;;;15.73;7.45;;;7.50;99.90;;;;;;5058868;28;20048;-70
2021/11/17 14:28:53;;;;;;;16.25;7.80;;;7.50;99.90;;;;;;5058528;28;20017;-69
2021/11/17 14:31:36;;;;;;;16.77;8.05;;;7.50;99.90;;;;;;5040435;28;20094;-69
2021/11/17 14:34:04;;;;;;;15.98;8.15;;;7.50;99.90;;;;;;5058196;28;20024;-69
2021/11/17 14:36:45;;;;;;;23.48;8.70;;;7.50;99.90;;;;;;5057324;28;20097;-69
2021/11/17 14:39:14;;;;;;;18.25;8.70;;;7.50;99.90;;;;;;5057380;28;20032;-69
2021/11/17 14:41:42;;;;;;;16.30;8.05;;;7.40;99.90;;;;;;5039608;28;20031;-69
2021/11/17 14:44:10;;;;;;;19.92;8.38;;;7.40;99.90;;;;;;5057434;28;20025;-69
2021/11/17 14:46:39;;;;;;;20.30;9.65;;;7.40;99.90;;;;;;5059133;28;20067;-69
2021/11/17 14:49:07;;;;;;;20.63;9.93;;;7.40;99.90;;;;;;5057632;28;20032;-69
2021/11/17 14:51:35;;;;;;;23.95;11.48;;;7.40;99.90;;;;;;5057633;28;20032;-69
2021/11/17 14:54:02;;;;;;;29.25;12.48;;;7.40;99.90;;;;;;5058607;28;20078;-69
2021/11/17 14:56:30;;;;;;;20.88;10.13;;;7.40;99.90;;;;;;5057292;28;20017;-69
2021/11/17 14:58:58;;;;;;;24.45;10.70;;;7.40;99.90;;;;;;5058032;28;20025;-69
2021/11/17 15:01:31;;;;;;;28.15;12.65;;;7.40;99.90;;;;;;5058626;28;20412;-69
2021/11/17 15:04:02;;;;;;;22.52;10.18;;;7.40;99.90;;;;;;5058352;28;20413;-69
2021/11/17 15:06:33;;;;;;;25.90;12.80;;;7.40;99.90;;;;;;5039820;28;20444;-69
2021/11/17 15:09:01;;;;;;;27.85;12.55;;;7.40;99.90;;;;;;5057632;28;20051;-69
2021/11/17 15:11:28;;;;;;;28.35;13.15;;;7.40;99.90;;;;;;5056752;28;20013;-69
2021/11/17 15:13:56;;;;;;;29.23;13.20;;;7.40;99.90;;;;;;5056821;28;20324;-68
2021/11/17 15:16:24;;;;;;;30.45;14.75;;;7.40;99.90;;;;;;5038925;28;20116;-69
2021/11/17 15:18:52;;;;;;;28.70;14.63;;;7.40;99.90;;;;;;5056883;28;20021;-69
2021/11/17 15:21:22;;;;;;;28.92;13.38;;;7.40;99.90;;;;;;5056535;28;20417;-69
2021/11/17 15:23:50;;;;;;;27.73;13.82;;;7.40;99.90;;;;;;5038948;28;20028;-69
2021/11/17 15:26:19;;;;;;;30.13;13.93;;;7.40;99.90;;;;;;5056420;28;20021;-69
2021/11/17 15:28:52;;;;;;;31.20;12.57;;;7.30;99.90;;;;;;5056603;28;20104;-69
2021/11/17 15:31:24;;;;;;;35.65;15.52;;;7.40;99.90;;;;;;5057292;28;20021;-69
2021/11/17 15:33:53;;;;;;;32.15;14.30;;;7.40;99.90;;;;;;5039787;28;20363;-70
2021/11/17 15:36:21;;;;;;;36.33;13.95;;;7.40;99.90;;;;;;5057185;28;20021;-70
2021/11/17 15:38:50;;;;;;;36.17;15.52;;;7.40;99.90;;;;;;5039761;28;20086;-70
2021/11/17 15:41:25;;;;;;;35.83;16.38;;;7.40;99.90;;;;;;5057284;28;20025;-70
2021/11/17 15:43:54;;;;;;;37.20;16.10;;;7.40;99.90;;;;;;5056195;28;20036;-69
2021/11/17 15:46:23;;;;;;;34.78;15.75;;;7.40;99.90;;;;;;5047354;28;20052;-70
2021/11/17 15:48:52;;;;;;;33.53;15.02;;;7.40;99.90;;;;;;5077377;28;20020;-69
2021/11/17 15:51:31;;;;;;;36.40;14.90;;;7.40;99.90;;;;;;5076285;28;20078;-69
2021/11/17 15:54:00;;;;;;;41.60;15.48;;;7.40;99.90;;;;;;5076309;28;20021;-69
2021/11/17 15:56:30;;;;;;;35.95;15.25;;;7.40;99.90;;;;;;5076296;28;20448;-69
2021/11/17 15:58:58;;;;;;;35.50;14.90;;;7.40;99.90;;;;;;5076791;28;20396;-69
2021/11/17 16:01:26;;;;;;;44.08;16.38;;;7.40;99.90;;;;;;5076201;28;20032;-70
2021/11/17 16:03:56;;;;;;;38.17;15.40;;;7.40;99.90;;;;;;5076525;28;20073;-72